Time;durP1;ratioP1;P1;durP2;ratioP2;P2;SDS_P1;SDS_P2;PMS_P1;PMS_P2;Temp;Humidity;BMP_temperature;BMP_pressure;BME280_temperature;BME280_humidity;BME280_pressure;Samples;Min_cycle;Max_cycle;Signal;HPM_P1;HPM_P2
2023/01/20 00:02:15;;;;;;;1.97;1.00;;;;;;;;;;5075039;28;20025;-72
2023/01/20 00:04:41;;;;;;;2.10;1.47;;;;;;;;;;5074810;28;20028;-71
2023/01/20 00:07:07;;;;;;;1.87;1.13;;;;;;;;;;5074475;28;20055;-72
2023/01/20 00:09:33;;;;;;;2.20;1.27;;;;;;;;;;5074765;28;20031;-72
2023/01/20 00:11:59;;;;;;;2.77;1.57;;;;;;;;;;5056810;28;20029;-72
2023/01/20 00:14:26;;;;;;;1.93;1.37;;;;;;;;;;5074673;28;20024;-72
2023/01/20 00:16:52;;;;;;;2.00;1.30;;;;;;;;;;5074630;28;20048;-72
2023/01/20 00:19:18;;;;;;;1.67;1.30;;;;;;;;;;5056621;28;20082;-72
2023/01/20 00:21:45;;;;;;;2.13;1.60;;;;;;;;;;5074727;28;20025;-72
2023/01/20 00:24:11;;;;;;;1.87;1.23;;;;;;;;;;5056590;28;20023;-72
2023/01/20 00:26:37;;;;;;;1.93;1.40;;;;;;;;;;5074406;28;20482;-72
2023/01/20 00:29:03;;;;;;;3.10;1.80;;;;;;;;;;5074416;28;20074;-72
2023/01/20 00:31:30;;;;;;;2.67;1.63;;;;;;;;;;5074226;28;20131;-72
2023/01/20 00:33:58;;;;;;;1.97;1.43;;;;;;;;;;5056223;28;20033;-72
2023/01/20 00:36:25;;;;;;;2.17;1.50;;;;;;;;;;5074151;28;20016;-72
2023/01/20 00:38:51;;;;;;;2.83;1.43;;;;;;;;;;5056111;28;20039;-72
2023/01/20 00:41:18;;;;;;;3.77;1.20;;;;;;;;;;5074101;28;20028;-72
2023/01/20 00:43:44;;;;;;;1.40;1.10;;;;;;;;;;5074124;28;20020;-72
2023/01/20 00:46:10;;;;;;;1.43;1.10;;;;;;;;;;5073918;28;20041;-72
2023/01/20 00:48:37;;;;;;;1.80;1.20;;;;;;;;;;5073816;28;20098;-72
2023/01/20 00:51:04;;;;;;;1.70;1.30;;;;;;;;;;5055752;28;20031;-72
2023/01/20 00:53:30;;;;;;;2.20;1.40;;;;;;;;;;5073750;28;20029;-72
2023/01/20 00:55:56;;;;;;;1.77;1.20;;;;;;;;;;5074031;28;20447;-72
2023/01/20 00:58:22;;;;;;;2.20;1.17;;;;;;;;;;5073704;28;20035;-72
2023/01/20 01:00:49;;;;;;;1.40;1.00;;;;;;;;;;5073599;28;20028;-72
2023/01/20 01:03:15;;;;;;;2.00;1.40;;;;;;;;;;5073266;28;20062;-72
2023/01/20 01:05:41;;;;;;;1.63;1.07;;;;;;;;;;5073427;28;20056;-71
2023/01/20 01:08:08;;;;;;;1.60;1.10;;;;;;;;;;5073697;28;20470;-72
2023/01/20 01:10:34;;;;;;;2.47;0.93;;;;;;;;;;5073273;28;20028;-72
2023/01/20 01:13:01;;;;;;;1.43;1.07;;;;;;;;;;5072300;28;20029;-72
2023/01/20 01:15:27;;;;;;;2.20;1.33;;;;;;;;;;5070452;28;20036;-72
2023/01/20 01:17:53;;;;;;;1.90;1.10;;;;;;;;;;5071174;28;20029;-72
2023/01/20 01:20:20;;;;;;;1.90;1.00;;;;;;;;;;5072062;28;20080;-72
2023/01/20 01:22:46;;;;;;;1.47;1.10;;;;;;;;;;5073239;28;20020;-72
2023/01/20 01:25:12;;;;;;;1.03;0.93;;;;;;;;;;5073141;28;20075;-72
2023/01/20 01:27:38;;;;;;;1.83;1.17;;;;;;;;;;5073482;28;20025;-72
2023/01/20 01:30:04;;;;;;;2.17;1.30;;;;;;;;;;5073193;28;20028;-72
2023/01/20 01:32:30;;;;;;;1.83;1.40;;;;;;;;;;5073075;28;20017;-72
2023/01/20 01:34:57;;;;;;;1.57;1.00;;;;;;;;;;5073132;28;20182;-72
2023/01/20 01:37:23;;;;;;;1.80;0.80;;;;;;;;;;5073372;28;20502;-72
2023/01/20 01:39:49;;;;;;;1.37;1.00;;;;;;;;;;5069482;28;20089;-72
2023/01/20 01:42:16;;;;;;;1.60;1.10;;;;;;;;;;5070144;28;20051;-72
2023/01/20 01:45:01;;;;;;;1.80;1.10;;;;;;;;;;5071253;28;20024;-71
2023/01/20 01:47:27;;;;;;;1.37;0.90;;;;;;;;;;5072748;28;20036;-72
2023/01/20 01:49:53;;;;;;;1.73;0.80;;;;;;;;;;5072980;28;20066;-72
2023/01/20 01:52:20;;;;;;;1.53;0.87;;;;;;;;;;5073114;28;20469;-72
2023/01/20 01:54:48;;;;;;;1.70;1.00;;;;;;;;;;5072617;28;20071;-72
2023/01/20 01:57:14;;;;;;;4.17;1.00;;;;;;;;;;5072778;28;20463;-72
2023/01/20 01:59:40;;;;;;;1.53;0.90;;;;;;;;;;5072622;28;20470;-72
2023/01/20 02:02:06;;;;;;;1.30;0.90;;;;;;;;;;5072782;28;20027;-71
2023/01/20 02:04:33;;;;;;;1.60;0.90;;;;;;;;;;5072631;28;20048;-72
2023/01/20 02:07:05;;;;;;;1.30;0.90;;;;;;;;;;5072460;28;20027;-72
2023/01/20 02:09:31;;;;;;;1.27;0.97;;;;;;;;;;5072182;28;20028;-72
2023/01/20 02:12:00;;;;;;;2.27;0.80;;;;;;;;;;5072724;28;20091;-72
2023/01/20 02:14:35;;;;;;;1.87;0.70;;;;;;;;;;5072471;28;20107;-72
2023/01/20 02:17:07;;;;;;;1.47;0.87;;;;;;;;;;5072475;28;20024;-72
2023/01/20 02:19:33;;;;;;;1.80;1.00;;;;;;;;;;5072381;28;20060;-72
2023/01/20 02:22:09;;;;;;;1.20;0.90;;;;;;;;;;5072674;28;20020;-72
2023/01/20 02:25:04;;;;;;;2.07;0.90;;;;;;;;;;5072090;28;20035;-72
2023/01/20 02:27:45;;;;;;;1.10;0.90;;;;;;;;;;4984475;28;20537;-72
2023/01/20 02:30:29;;;;;;;1.67;0.90;;;;;;;;;;5071912;28;20474;-72
2023/01/20 02:33:00;;;;;;;2.03;0.90;;;;;;;;;;5072565;28;20100;-72
2023/01/20 02:35:38;;;;;;;1.23;0.90;;;;;;;;;;5072863;28;20452;-72
2023/01/20 02:38:07;;;;;;;1.40;1.00;;;;;;;;;;5072401;28;20028;-71
2023/01/20 02:40:37;;;;;;;2.83;1.20;;;;;;;;;;5072383;28;20040;-71
2023/01/20 02:43:18;;;;;;;2.80;1.10;;;;;;;;;;5072681;28;20023;-72
2023/01/20 02:45:56;;;;;;;1.10;0.80;;;;;;;;;;5072176;28;20539;-72
2023/01/20 02:48:27;;;;;;;2.00;1.10;;;;;;;;;;5072362;28;20070;-72
2023/01/20 02:51:02;;;;;;;1.87;1.00;;;;;;;;;;5054382;28;20465;-72
2023/01/20 02:53:32;;;;;;;1.33;0.87;;;;;;;;;;5072095;28;20036;-71
2023/01/20 02:55:58;;;;;;;1.10;0.87;;;;;;;;;;5072150;28;20024;-72
2023/01/20 02:58:32;;;;;;;1.20;0.87;;;;;;;;;;5072337;28;20021;-72
2023/01/20 03:01:04;;;;;;;1.20;0.90;;;;;;;;;;5072174;28;20048;-72
2023/01/20 03:03:34;;;;;;;1.20;0.93;;;;;;;;;;5072358;28;20111;-72
2023/01/20 03:06:01;;;;;;;0.97;0.70;;;;;;;;;;5072047;28;20029;-72
2023/01/20 03:08:29;;;;;;;1.37;0.80;;;;;;;;;;5071984;28;20056;-72
2023/01/20 03:10:57;;;;;;;0.83;0.60;;;;;;;;;;5072386;28;20032;-72
2023/01/20 03:13:33;;;;;;;1.37;0.90;;;;;;;;;;5072244;28;20054;-72
2023/01/20 03:16:10;;;;;;;1.20;0.87;;;;;;;;;;5072015;28;20017;-72
2023/01/20 03:18:36;;;;;;;1.87;1.03;;;;;;;;;;5053890;28;20367;-72
2023/01/20 03:21:03;;;;;;;3.37;0.90;;;;;;;;;;5071961;28;20108;-72
2023/01/20 03:23:31;;;;;;;1.50;0.97;;;;;;;;;;5072141;28;20032;-72
2023/01/20 03:25:57;;;;;;;1.30;0.90;;;;;;;;;;5071994;28;20033;-72
2023/01/20 03:28:23;;;;;;;1.70;1.17;;;;;;;;;;5071888;28;20033;-71
2023/01/20 03:30:50;;;;;;;1.33;0.80;;;;;;;;;;5071983;28;20031;-72
2023/01/20 03:33:17;;;;;;;3.03;1.37;;;;;;;;;;5072163;28;20470;-72
2023/01/20 03:35:43;;;;;;;2.27;1.40;;;;;;;;;;5071884;28;20033;-72
2023/01/20 03:38:10;;;;;;;2.37;1.43;;;;;;;;;;5072244;28;20486;-72
2023/01/20 03:40:40;;;;;;;2.33;1.20;;;;;;;;;;5071533;28;20040;-72
2023/01/20 03:43:11;;;;;;;2.37;1.20;;;;;;;;;;5071859;28;20025;-72
2023/01/20 03:45:54;;;;;;;2.93;1.30;;;;;;;;;;5055399;28;20021;-72
2023/01/20 03:48:27;;;;;;;3.37;1.60;;;;;;;;;;5055365;28;20036;-72
2023/01/20 03:51:16;;;;;;;3.60;1.27;;;;;;;;;;5055311;28;20056;-72
2023/01/20 03:53:44;;;;;;;1.93;1.20;;;;;;;;;;5044789;28;20082;-72
2023/01/20 03:56:16;;;;;;;2.70;1.50;;;;;;;;;;5055371;28;20024;-71
2023/01/20 03:58:44;;;;;;;1.83;1.42;;;;;;;;;;5055174;28;20173;-72
2023/01/20 04:01:11;;;;;;;2.27;1.40;;;;;;;;;;5055379;28;20028;-72
2023/01/20 04:03:39;;;;;;;7.20;1.50;;;;;;;;;;5053822;28;20059;-72
2023/01/20 04:06:07;;;;;;;2.10;1.37;;;;;;;;;;5066931;28;20035;-72
2023/01/20 04:08:34;;;;;;;2.13;1.30;;;;;;;;;;5074852;28;20029;-72
2023/01/20 04:11:04;;;;;;;1.83;1.30;;;;;;;;;;5074521;28;20104;-72
2023/01/20 04:13:30;;;;;;;2.83;1.50;;;;;;;;;;5074792;28;20048;-71
2023/01/20 04:15:57;;;;;;;2.53;1.57;;;;;;;;;;5056745;28;20033;-72
2023/01/20 04:18:23;;;;;;;2.50;1.60;;;;;;;;;;5074753;28;20107;-72
2023/01/20 04:20:54;;;;;;;2.27;1.50;;;;;;;;;;5075128;28;20135;-72
2023/01/20 04:23:23;;;;;;;2.13;1.37;;;;;;;;;;5074583;28;20048;-72
2023/01/20 04:25:50;;;;;;;4.43;1.60;;;;;;;;;;5074933;28;20512;-72
2023/01/20 04:28:16;;;;;;;3.77;1.47;;;;;;;;;;5056545;28;20029;-72
2023/01/20 04:30:42;;;;;;;2.80;1.60;;;;;;;;;;5074872;28;20583;-72
2023/01/20 04:33:08;;;;;;;2.10;1.63;;;;;;;;;;5074790;28;20021;-72
2023/01/20 04:35:34;;;;;;;2.90;1.70;;;;;;;;;;5074225;28;20029;-72
2023/01/20 04:38:00;;;;;;;2.77;1.80;;;;;;;;;;5056470;28;20108;-70
2023/01/20 04:40:26;;;;;;;2.63;1.83;;;;;;;;;;5074380;28;20070;-72
2023/01/20 04:42:53;;;;;;;3.23;1.70;;;;;;;;;;5074335;28;20020;-72
2023/01/20 04:45:19;;;;;;;2.90;1.80;;;;;;;;;;5074468;28;20034;-72
2023/01/20 04:47:45;;;;;;;3.47;1.70;;;;;;;;;;5074356;28;20047;-72
2023/01/20 04:50:12;;;;;;;2.40;1.80;;;;;;;;;;5074177;28;20029;-72
2023/01/20 04:52:38;;;;;;;2.03;1.60;;;;;;;;;;5074088;28;20055;-72
2023/01/20 04:55:05;;;;;;;3.07;1.63;;;;;;;;;;5074369;28;20032;-72
2023/01/20 04:57:31;;;;;;;2.53;1.50;;;;;;;;;;5074113;28;20383;-72
2023/01/20 04:59:57;;;;;;;2.83;1.60;;;;;;;;;;5074020;28;20044;-72
2023/01/20 05:02:23;;;;;;;2.40;1.50;;;;;;;;;;5074131;28;20024;-72
2023/01/20 05:04:49;;;;;;;2.23;1.53;;;;;;;;;;5073898;28;20214;-72
2023/01/20 05:07:15;;;;;;;4.20;2.03;;;;;;;;;;5073798;28;20073;-72
2023/01/20 05:09:41;;;;;;;6.03;1.50;;;;;;;;;;5073594;28;20028;-72
2023/01/20 05:12:07;;;;;;;2.83;1.67;;;;;;;;;;5073619;28;20528;-72
2023/01/20 05:14:33;;;;;;;2.97;1.70;;;;;;;;;;5073446;28;20028;-72
2023/01/20 05:16:59;;;;;;;2.03;1.57;;;;;;;;;;5073348;28;20082;-71
2023/01/20 05:19:25;;;;;;;2.50;1.60;;;;;;;;;;5073064;28;20135;-72
2023/01/20 05:21:51;;;;;;;2.87;1.70;;;;;;;;;;5073442;28;20024;-72
2023/01/20 05:24:17;;;;;;;2.60;1.53;;;;;;;;;;5073465;28;20032;-72
2023/01/20 05:26:44;;;;;;;2.10;1.43;;;;;;;;;;5073402;28;20016;-72
2023/01/20 05:29:10;;;;;;;2.63;1.50;;;;;;;;;;5073317;28;20031;-72
2023/01/20 05:31:42;;;;;;;2.73;1.60;;;;;;;;;;5073260;28;20094;-71
2023/01/20 05:34:08;;;;;;;2.70;1.67;;;;;;;;;;5073335;28;20474;-72
2023/01/20 05:36:34;;;;;;;4.70;1.60;;;;;;;;;;5073082;28;20798;-72
2023/01/20 05:39:00;;;;;;;2.27;1.40;;;;;;;;;;5073187;28;20036;-71
2023/01/20 05:41:26;;;;;;;3.67;1.17;;;;;;;;;;5073334;28;20029;-72
2023/01/20 05:43:53;;;;;;;3.00;2.13;;;;;;;;;;5073272;28;20024;-72
2023/01/20 05:46:19;;;;;;;2.30;1.60;;;;;;;;;;5073056;28;20478;-72
2023/01/20 05:48:45;;;;;;;4.17;2.03;;;;;;;;;;5073067;28;20028;-72
2023/01/20 05:51:11;;;;;;;2.40;1.37;;;;;;;;;;5073144;28;20031;-72
2023/01/20 05:53:37;;;;;;;2.87;1.70;;;;;;;;;;5073223;28;20477;-72
2023/01/20 05:56:05;;;;;;;3.97;2.00;;;;;;;;;;5072888;28;20031;-72
2023/01/20 05:58:31;;;;;;;4.17;2.00;;;;;;;;;;5072738;28;20025;-71
2023/01/20 06:01:04;;;;;;;3.50;1.93;;;;;;;;;;5072923;28;20024;-72
2023/01/20 06:03:30;;;;;;;5.13;2.10;;;;;;;;;;5072930;28;20029;-72
2023/01/20 06:06:03;;;;;;;2.70;1.80;;;;;;;;;;5072451;28;20027;-72
2023/01/20 06:08:29;;;;;;;2.30;1.60;;;;;;;;;;5072874;28;20505;-72
2023/01/20 06:10:55;;;;;;;3.30;1.80;;;;;;;;;;5072755;28;20410;-71
2023/01/20 06:13:22;;;;;;;2.40;1.80;;;;;;;;;;5072962;28;20104;-72
2023/01/20 06:15:54;;;;;;;4.03;2.13;;;;;;;;;;5072822;28;20100;-72
2023/01/20 06:18:21;;;;;;;3.63;1.90;;;;;;;;;;5072782;28;20020;-72
2023/01/20 06:20:47;;;;;;;2.90;2.00;;;;;;;;;;5072480;28;20032;-71
2023/01/20 06:23:14;;;;;;;3.03;2.20;;;;;;;;;;5072747;28;20462;-72
2023/01/20 06:25:40;;;;;;;2.60;1.77;;;;;;;;;;5072869;28;20032;-72
2023/01/20 06:28:07;;;;;;;3.70;2.07;;;;;;;;;;5072807;28;20028;-72
2023/01/20 06:30:33;;;;;;;3.43;2.00;;;;;;;;;;5072495;28;20028;-72
2023/01/20 06:32:59;;;;;;;3.37;1.90;;;;;;;;;;5072595;28;20029;-72
2023/01/20 06:35:26;;;;;;;10.40;2.17;;;;;;;;;;5072819;28;20489;-72
2023/01/20 06:37:52;;;;;;;3.37;2.27;;;;;;;;;;5072498;28;20025;-71
2023/01/20 06:40:18;;;;;;;5.87;2.70;;;;;;;;;;5072414;28;20040;-72
2023/01/20 06:42:44;;;;;;;4.17;2.50;;;;;;;;;;5072658;28;20060;-72
2023/01/20 06:45:11;;;;;;;4.80;3.00;;;;;;;;;;5071715;28;20021;-72
2023/01/20 06:47:37;;;;;;;6.53;3.13;;;;;;;;;;5071051;28;20025;-73
2023/01/20 06:50:03;;;;;;;3.60;2.60;;;;;;;;;;5060413;28;20036;-71
2023/01/20 06:52:29;;;;;;;3.33;2.07;;;;;;;;;;5039315;28;20040;-72
2023/01/20 06:54:55;;;;;;;4.33;2.73;;;;;;;;;;5050208;28;20476;-71
2023/01/20 06:57:21;;;;;;;7.77;2.77;;;;;;;;;;5055809;28;20076;-72
2023/01/20 06:59:47;;;;;;;4.30;2.63;;;;;;;;;;5065357;28;20547;-72
2023/01/20 07:02:13;;;;;;;10.27;3.67;;;;;;;;;;5050910;28;20026;-72
2023/01/20 07:04:41;;;;;;;7.07;3.67;;;;;;;;;;5050971;28;20037;-71
2023/01/20 07:07:09;;;;;;;5.27;3.07;;;;;;;;;;5051812;28;20063;-72
2023/01/20 07:09:35;;;;;;;6.50;3.13;;;;;;;;;;5052035;28;20025;-72
2023/01/20 07:12:01;;;;;;;4.83;2.87;;;;;;;;;;5052062;28;20036;-72
2023/01/20 07:14:27;;;;;;;4.53;2.50;;;;;;;;;;5051890;28;20122;-72
2023/01/20 07:16:53;;;;;;;3.60;2.60;;;;;;;;;;5050727;28;20017;-72
2023/01/20 07:19:20;;;;;;;4.83;2.40;;;;;;;;;;5055065;28;20402;-72
2023/01/20 07:21:46;;;;;;;4.10;2.20;;;;;;;;;;5055760;28;20036;-72
2023/01/20 07:24:12;;;;;;;3.47;2.40;;;;;;;;;;5053593;28;20035;-71
2023/01/20 07:26:38;;;;;;;4.30;2.67;;;;;;;;;;5068585;28;20025;-71
2023/01/20 07:29:04;;;;;;;4.00;2.63;;;;;;;;;;5075029;28;20108;-77
2023/01/20 07:31:30;;;;;;;4.83;2.93;;;;;;;;;;5070563;28;20028;-70
2023/01/20 07:33:56;;;;;;;4.73;3.13;;;;;;;;;;5059886;28;20057;-71
2023/01/20 07:36:23;;;;;;;6.97;3.80;;;;;;;;;;5052333;28;20493;-71
2023/01/20 07:38:49;;;;;;;7.03;4.07;;;;;;;;;;5053121;28;20036;-72
2023/01/20 07:41:17;;;;;;;5.40;3.23;;;;;;;;;;5053877;28;20025;-71
2023/01/20 07:43:46;;;;;;;6.57;3.57;;;;;;;;;;5053908;28;20021;-72
2023/01/20 07:46:12;;;;;;;6.87;3.17;;;;;;;;;;5052717;28;20509;-70
2023/01/20 07:48:39;;;;;;;6.17;3.27;;;;;;;;;;5052577;28;20036;-70
2023/01/20 07:51:06;;;;;;;4.53;3.07;;;;;;;;;;5051841;28;20032;-70
2023/01/20 07:53:36;;;;;;;5.10;3.43;;;;;;;;;;5049391;28;20058;-70
2023/01/20 07:56:03;;;;;;;4.33;2.67;;;;;;;;;;5052549;28;20017;-70
2023/01/20 07:58:30;;;;;;;4.77;3.27;;;;;;;;;;5053855;28;20021;-70
2023/01/20 08:00:56;;;;;;;5.57;3.27;;;;;;;;;;5053887;28;20028;-69
2023/01/20 08:03:24;;;;;;;4.63;3.20;;;;;;;;;;5053792;28;20025;-71
2023/01/20 08:05:50;;;;;;;6.67;3.37;;;;;;;;;;5053526;28;20025;-70
2023/01/20 08:08:16;;;;;;;9.03;3.70;;;;;;;;;;5053900;28;20040;-72
2023/01/20 08:10:42;;;;;;;8.33;4.13;;;;;;;;;;5053592;28;20092;-70
2023/01/20 08:13:10;;;;;;;8.90;3.40;;;;;;;;;;5053533;28;20048;-70
2023/01/20 08:15:36;;;;;;;8.87;3.37;;;;;;;;;;5054094;28;20036;-70
2023/01/20 08:18:02;;;;;;;6.83;3.87;;;;;;;;;;5053728;28;20040;-70
2023/01/20 08:20:28;;;;;;;5.07;3.27;;;;;;;;;;5069785;28;20490;-70
2023/01/20 08:22:54;;;;;;;8.27;4.13;;;;;;;;;;5055207;28;20035;-71
2023/01/20 08:25:20;;;;;;;5.67;3.40;;;;;;;;;;5073216;28;20056;-71
2023/01/20 08:27:48;;;;;;;6.43;4.50;;;;;;;;;;5072870;28;20048;-70
2023/01/20 08:30:15;;;;;;;7.07;4.27;;;;;;;;;;5072748;28;20017;-71
2023/01/20 08:32:41;;;;;;;15.13;5.00;;;;;;;;;;5071854;28;20033;-70
2023/01/20 08:35:07;;;;;;;4.37;3.10;;;;;;;;;;5070498;28;20067;-71
2023/01/20 08:37:35;;;;;;;9.33;3.87;;;;;;;;;;5070993;28;20028;-70
2023/01/20 08:40:01;;;;;;;5.23;3.70;;;;;;;;;;5072871;28;20368;-71
2023/01/20 08:42:27;;;;;;;7.03;4.00;;;;;;;;;;5072845;28;20059;-71
2023/01/20 08:44:53;;;;;;;7.80;3.73;;;;;;;;;;5073254;28;20035;-71
2023/01/20 08:47:20;;;;;;;4.90;3.33;;;;;;;;;;5072428;28;20024;-70
2023/01/20 08:49:46;;;;;;;6.23;3.60;;;;;;;;;;5070975;28;20419;-71
2023/01/20 08:52:12;;;;;;;5.97;3.73;;;;;;;;;;5070575;28;20024;-71
2023/01/20 08:54:38;;;;;;;9.67;3.43;;;;;;;;;;5071467;28;20147;-71
2023/01/20 08:57:04;;;;;;;5.70;3.50;;;;;;;;;;5072665;28;20028;-71
2023/01/20 08:59:30;;;;;;;5.40;3.40;;;;;;;;;;5072563;28;20128;-71
2023/01/20 09:01:56;;;;;;;4.73;3.03;;;;;;;;;;5072809;28;20107;-71
2023/01/20 09:04:22;;;;;;;4.73;3.27;;;;;;;;;;5072759;28;20028;-72
2023/01/20 09:06:52;;;;;;;4.67;3.20;;;;;;;;;;5072644;28;20490;-71
2023/01/20 09:09:19;;;;;;;4.70;3.13;;;;;;;;;;5063644;28;20024;-71
2023/01/20 09:11:49;;;;;;;5.30;3.77;;;;;;;;;;5043673;28;20016;-71
2023/01/20 09:14:24;;;;;;;5.40;3.57;;;;;;;;;;5063661;28;20029;-70
2023/01/20 09:16:51;;;;;;;6.53;2.80;;;;;;;;;;5063530;28;20021;-71
2023/01/20 09:19:17;;;;;;;3.80;2.70;;;;;;;;;;5057879;28;20048;-71
2023/01/20 09:21:43;;;;;;;5.23;3.00;;;;;;;;;;5061817;28;20023;-71
2023/01/20 09:24:09;;;;;;;4.67;2.30;;;;;;;;;;5062668;28;20017;-71
2023/01/20 09:26:39;;;;;;;4.23;2.17;;;;;;;;;;5053203;28;20479;-70
2023/01/20 09:29:09;;;;;;;5.60;2.17;;;;;;;;;;5050960;28;20056;-70
2023/01/20 09:31:45;;;;;;;2.87;2.07;;;;;;;;;;5051985;28;20029;-70
2023/01/20 09:34:17;;;;;;;2.70;1.90;;;;;;;;;;5051558;28;20029;-70
2023/01/20 09:36:43;;;;;;;3.47;2.08;;;;;;;;;;5050538;28;20108;-70
2023/01/20 09:44:44;;;;;;;4.87;2.23;;;;;;;;;;5023727;28;20078;-70
2023/01/20 09:47:19;;;;;;;3.60;2.07;;;;;;;;;;5033939;28;20453;-70
2023/01/20 09:55:28;;;;;;;3.77;2.40;;;;;;;;;;5052171;28;20040;-71
2023/01/20 09:58:13;;;;;;;2.97;2.07;;;;;;;;;;5052285;28;20033;-71
2023/01/20 10:00:40;;;;;;;4.93;2.03;;;;;;;;;;5052068;28;20033;-71
2023/01/20 10:03:14;;;;;;;2.93;2.03;;;;;;;;;;5051772;28;20376;-71
2023/01/20 10:05:42;;;;;;;3.77;2.00;;;;;;;;;;5051700;28;20031;-71
2023/01/20 10:08:14;;;;;;;4.43;2.37;;;;;;;;;;5051775;28;20029;-71
2023/01/20 10:10:45;;;;;;;6.28;2.50;;;;;;;;;;5030956;28;20051;-72
2023/01/20 10:13:13;;;;;;;4.50;2.27;;;;;;;;;;5048839;28;20125;-71
2023/01/20 10:15:43;;;;;;;2.90;2.10;;;;;;;;;;5048421;28;20083;-71
2023/01/20 10:18:12;;;;;;;5.47;2.27;;;;;;;;;;5051435;28;20036;-71
2023/01/20 10:20:42;;;;;;;3.00;2.10;;;;;;;;;;5051477;28;20111;-71
2023/01/20 10:23:28;;;;;;;2.70;2.10;;;;;;;;;;5051970;28;20025;-71
2023/01/20 10:26:15;;;;;;;3.23;2.00;;;;;;;;;;5051832;28;20033;-71
2023/01/20 10:57:14;;;;;;;4.07;2.00;;;;;;;;;;5090913;28;20087;-71
2023/01/20 10:59:46;;;;;;;3.70;2.00;;;;;;;;;;5076995;28;20482;-71
2023/01/20 11:02:15;;;;;;;5.67;2.13;;;;;;;;;;5095263;28;20036;-71
2023/01/20 11:04:41;;;;;;;3.33;2.20;;;;;;;;;;5095325;28;20043;-71
2023/01/20 11:07:15;;;;;;;3.60;2.17;;;;;;;;;;5095074;28;20494;-72
2023/01/20 11:09:41;;;;;;;3.77;2.30;;;;;;;;;;5094769;28;20031;-71
2023/01/20 11:12:19;;;;;;;8.00;2.27;;;;;;;;;;5094633;28;20119;-72
2023/01/20 11:14:46;;;;;;;5.50;2.20;;;;;;;;;;5094605;28;20036;-71
2023/01/20 11:17:16;;;;;;;3.27;1.97;;;;;;;;;;5094594;28;20111;-71
2023/01/20 11:19:50;;;;;;;5.93;2.20;;;;;;;;;;5094545;28;20039;-71
2023/01/20 11:22:29;;;;;;;3.00;2.10;;;;;;;;;;5094308;28;20032;-71
2023/01/20 11:25:00;;;;;;;3.77;2.10;;;;;;;;;;5093396;28;20453;-72
2023/01/20 11:27:28;;;;;;;4.20;2.60;;;;;;;;;;5094266;28;20115;-72
2023/01/20 11:30:00;;;;;;;2.90;2.07;;;;;;;;;;5094289;28;20065;-71
2023/01/20 11:32:38;;;;;;;3.05;1.70;;;;;;;;;;5094320;28;20128;-71
2023/01/20 11:35:31;;;;;;;5.57;2.23;;;;;;;;;;5091057;28;20117;-71
2023/01/20 11:37:57;;;;;;;3.67;1.95;;;;;;;;;;5068839;28;20040;-71
2023/01/20 11:40:24;;;;;;;9.13;3.50;;;;;;;;;;5092468;28;20553;-71
2023/01/20 11:42:51;;;;;;;28.17;8.17;;;;;;;;;;5094340;28;20029;-71
2023/01/20 11:45:24;;;;;;;4.20;2.40;;;;;;;;;;5094362;28;20126;-71
2023/01/20 11:47:59;;;;;;;9.38;3.15;;;;;;;;;;5094480;28;20058;-71
2023/01/20 11:50:32;;;;;;;2.17;1.57;;;;;;;;;;5095006;28;20039;-71
2023/01/20 11:53:12;;;;;;;3.17;2.10;;;;;;;;;;5095061;28;20032;-72
2023/01/20 11:55:49;;;;;;;3.00;1.67;;;;;;;;;;5094337;28;20063;-71
2023/01/20 11:58:20;;;;;;;4.93;1.70;;;;;;;;;;5094307;28;20052;-71
2023/01/20 12:00:46;;;;;;;3.43;1.90;;;;;;;;;;5094396;28;20036;-71
2023/01/20 12:03:15;;;;;;;20.30;6.37;;;;;;;;;;5093534;28;20035;-71
2023/01/20 12:05:47;;;;;;;2.93;2.00;;;;;;;;;;5094500;28;20028;-71
2023/01/20 12:08:17;;;;;;;7.25;3.25;;;;;;;;;;5076726;28;20127;-72
2023/01/20 12:10:44;;;;;;;13.60;4.90;;;;;;;;;;5094652;28;20043;-71
2023/01/20 12:13:19;;;;;;;38.63;11.63;;;;;;;;;;5094781;28;20506;-71
2023/01/20 12:15:51;;;;;;;3.10;1.90;;;;;;;;;;5094590;28;20111;-72
2023/01/20 12:18:26;;;;;;;7.03;1.77;;;;;;;;;;5094328;28;20024;-71
2023/01/20 12:20:58;;;;;;;2.80;1.80;;;;;;;;;;5094511;28;20066;-71
2023/01/20 12:23:38;;;;;;;2.43;1.70;;;;;;;;;;5094601;28;20047;-71
2023/01/20 12:26:05;;;;;;;5.00;2.00;;;;;;;;;;5094909;28;20024;-71
2023/01/20 12:28:47;;;;;;;2.70;1.60;;;;;;;;;;5094299;28;20028;-70
2023/01/20 12:31:18;;;;;;;2.65;1.60;;;;;;;;;;5094273;28;20040;-72
2023/01/20 12:33:45;;;;;;;2.47;1.57;;;;;;;;;;5093443;28;20049;-71
2023/01/20 12:36:15;;;;;;;3.60;1.83;;;;;;;;;;5093479;28;20067;-71
2023/01/20 12:38:53;;;;;;;2.60;1.47;;;;;;;;;;5091797;28;20214;-71
2023/01/20 12:41:29;;;;;;;3.20;1.97;;;;;;;;;;5090587;28;20060;-72
2023/01/20 12:44:14;;;;;;;2.70;1.63;;;;;;;;;;5090905;28;20040;-71
2023/01/20 12:46:40;;;;;;;3.30;1.70;;;;;;;;;;5093568;28;20107;-71
2023/01/20 12:49:15;;;;;;;2.93;1.73;;;;;;;;;;5075402;28;20036;-71
2023/01/20 12:51:53;;;;;;;5.37;1.40;;;;;;;;;;5075054;28;20028;-71
2023/01/20 12:54:19;;;;;;;2.77;1.87;;;;;;;;;;5093530;28;20042;-71
2023/01/20 12:56:54;;;;;;;3.87;1.50;;;;;;;;;;5092818;28;20108;-70
2023/01/20 12:59:20;;;;;;;4.83;1.97;;;;;;;;;;5092900;28;20036;-71
2023/01/20 13:01:57;;;;;;;2.20;1.60;;;;;;;;;;5074720;28;20032;-71
2023/01/20 13:04:46;;;;;;;2.80;1.70;;;;;;;;;;5092416;28;20032;-71
2023/01/20 13:07:24;;;;;;;2.63;1.50;;;;;;;;;;5045888;28;20116;-70
2023/01/20 13:09:50;;;;;;;2.50;1.60;;;;;;;;;;5090146;28;20040;-71
2023/01/20 13:12:16;;;;;;;5.00;2.00;;;;;;;;;;5090019;28;20062;-71
2023/01/20 13:14:44;;;;;;;4.40;1.47;;;;;;;;;;5090379;28;20488;-71
2023/01/20 13:17:14;;;;;;;3.13;1.63;;;;;;;;;;5074043;28;20043;-71
2023/01/20 13:19:40;;;;;;;3.10;1.60;;;;;;;;;;5088121;28;20040;-72
2023/01/20 13:22:10;;;;;;;2.73;1.60;;;;;;;;;;5089469;28;20114;-72
2023/01/20 13:24:38;;;;;;;3.87;1.63;;;;;;;;;;5090576;28;20115;-71
2023/01/20 13:27:04;;;;;;;2.87;2.00;;;;;;;;;;5092102;28;20055;-72
2023/01/20 13:29:36;;;;;;;2.60;1.70;;;;;;;;;;5092646;28;20386;-72
2023/01/20 13:32:03;;;;;;;3.65;1.63;;;;;;;;;;5093001;28;20032;-71
2023/01/20 13:34:31;;;;;;;4.13;1.57;;;;;;;;;;5092727;28;20029;-72
2023/01/20 13:37:06;;;;;;;2.83;1.80;;;;;;;;;;5092877;28;20032;-72
2023/01/20 13:39:47;;;;;;;3.10;1.90;;;;;;;;;;5092972;28;20043;-72
2023/01/20 13:42:37;;;;;;;2.60;1.90;;;;;;;;;;5091973;28;20032;-70
2023/01/20 13:45:12;;;;;;;2.70;1.83;;;;;;;;;;5060505;28;20107;-71
2023/01/20 13:48:04;;;;;;;2.53;2.00;;;;;;;;;;5088625;28;20032;-73
2023/01/20 13:50:33;;;;;;;3.07;1.80;;;;;;;;;;5050780;28;20580;-72
2023/01/20 13:52:59;;;;;;;3.23;1.70;;;;;;;;;;5091653;28;20036;-72
2023/01/20 13:55:43;;;;;;;4.80;1.93;;;;;;;;;;5091900;28;20057;-72
2023/01/20 13:58:12;;;;;;;3.27;1.70;;;;;;;;;;5092362;28;20075;-72
2023/01/20 14:00:38;;;;;;;3.13;1.70;;;;;;;;;;5091951;28;20070;-71
2023/01/20 14:03:20;;;;;;;2.83;1.77;;;;;;;;;;5092317;28;20501;-72
2023/01/20 14:06:12;;;;;;;3.93;1.70;;;;;;;;;;5092060;28;20050;-72
2023/01/20 14:08:40;;;;;;;3.23;1.73;;;;;;;;;;5087653;28;20036;-72
2023/01/20 14:11:13;;;;;;;8.97;2.83;;;;;;;;;;5092069;28;20588;-72
2023/01/20 14:13:40;;;;;;;4.23;2.53;;;;;;;;;;5091961;28;20050;-72
2023/01/20 14:16:17;;;;;;;3.07;1.60;;;;;;;;;;5091944;28;20373;-72
2023/01/20 14:18:43;;;;;;;3.23;1.90;;;;;;;;;;5091657;28;20111;-72
2023/01/20 14:21:17;;;;;;;6.47;1.77;;;;;;;;;;5091435;28;20054;-72
2023/01/20 14:23:47;;;;;;;1.43;0.90;;;;;;;;;;5091498;28;20482;-72
2023/01/20 14:26:14;;;;;;;4.70;3.00;;;;;;;;;;5090895;28;20081;-71
2023/01/20 14:28:43;;;;;;;6.80;2.50;;;;;;;;;;5091651;28;20370;-71
2023/01/20 14:31:12;;;;;;;4.50;2.77;;;;;;;;;;5091719;28;20150;-71
2023/01/20 14:33:45;;;;;;;2.00;0.97;;;;;;;;;;5091796;28;20040;-71
2023/01/20 14:36:11;;;;;;;;;;;;;;;;;;5092051;28;20120;-72
2023/01/20 14:38:38;;;;;;;1.53;1.00;;;;;;;;;;5091797;28;19904;-71
2023/01/20 14:41:04;;;;;;;3.10;0.80;;;;;;;;;;5073581;28;20448;-72
2023/01/20 14:43:31;;;;;;;1.80;0.90;;;;;;;;;;5091916;28;20032;-72
2023/01/20 14:45:57;;;;;;;0.97;0.60;;;;;;;;;;5092015;28;20042;-71
2023/01/20 14:48:24;;;;;;;1.60;0.70;;;;;;;;;;5092036;28;20028;-72
2023/01/20 14:50:54;;;;;;;1.90;1.00;;;;;;;;;;5073790;28;20035;-70
2023/01/20 14:53:20;;;;;;;1.90;0.97;;;;;;;;;;5092088;28;20032;-71
2023/01/20 14:55:59;;;;;;;1.60;1.10;;;;;;;;;;5091914;28;20547;-72
2023/01/20 14:58:25;;;;;;;2.43;1.30;;;;;;;;;;5091758;28;20103;-72
2023/01/20 15:00:52;;;;;;;1.90;1.13;;;;;;;;;;5091705;28;20044;-71
2023/01/20 15:03:22;;;;;;;2.23;1.40;;;;;;;;;;5073720;28;20058;-72
2023/01/20 15:05:57;;;;;;;1.77;0.93;;;;;;;;;;5091872;28;20059;-72
2023/01/20 15:08:24;;;;;;;2.70;1.20;;;;;;;;;;5091652;28;20032;-71
2023/01/20 15:11:08;;;;;;;1.93;0.90;;;;;;;;;;5091814;28;20032;-71
2023/01/20 15:13:34;;;;;;;2.10;1.00;;;;;;;;;;5091446;28;20024;-71
2023/01/20 15:16:07;;;;;;;2.50;1.43;;;;;;;;;;5091602;28;20024;-72
2023/01/20 15:18:34;;;;;;;1.83;0.90;;;;;;;;;;5091847;28;20043;-71
2023/01/20 15:21:11;;;;;;;1.33;1.00;;;;;;;;;;5092046;28;20122;-71
2023/01/20 15:23:38;;;;;;;1.80;1.00;;;;;;;;;;5091605;28;20055;-72
2023/01/20 15:26:09;;;;;;;1.93;1.00;;;;;;;;;;5091400;28;20449;-71
2023/01/20 15:28:41;;;;;;;3.57;1.33;;;;;;;;;;5091751;28;20029;-71
2023/01/20 15:31:11;;;;;;;2.08;1.20;;;;;;;;;;5091718;28;20097;-71
2023/01/20 15:33:37;;;;;;;2.40;1.40;;;;;;;;;;5091755;28;20036;-70
2023/01/20 15:36:17;;;;;;;2.10;1.33;;;;;;;;;;5091692;28;20115;-71